Airfield :
LOGIN :

Register | Disclaimer

   EN    FR    IT 

 










Legend :    VFR   Marginal VFR   IFR   Intensive IFR   Very Intensive IFR
Visi :
Ceiling :
>= 8 km
>= 3000ft
5 to 8 km
1000 to 3000 ft
1500m to 5 km
500 to 1000 ft
800 to 1500m
200 to 500 ft
< 800m
< 200 ft
Symbols :   Thunderstorms  Fog  Heavy snow  Heavy precipitations  Wind > 20 kt
SIGMETs :     Misc.  Thunderstorms  Icing  Turbulence  Mountain Waves  Volcanic Ashes







- Airport Elevation : 699 ft
- IATA code : PAD


EDLP - Paderborn Lippstadt

CURRENT METAR :
  • 141420Z 23020KT 9999 FEW028 03/M00 Q0992

EXPIRED METARs :
  • 141350Z 23018KT 9999 FEW022 SCT040 03/M00 Q0992
  • 141320Z 23019KT 9999 SCT023 BKN034 04/00 Q0992
  • 141250Z 22023KT 9999 SCT020 04/00 Q0991
  • 141220Z 23022KT 9999 VCSH SCT021 SCT028 04/01 Q0992
  • 141150Z 21019G29KT 9999 FEW012 SCT074 04/01 Q0992

TAF TAF EDLP
Valid from the 14 at 12:00 until the 15 at 12:00 UTC


141100Z 1412/1512 23015G25KT 9999 BKN030
TEMPO 1412/1414 25020G35KT
BECMG 1414/1417 21010KT
BECMG 1423/1501 18005KT
TEMPO 1501/1506 25011KT 2500 SHSNRA BKN012TCU
No reported NOTAMs for that airfield.



MET'MAP, your aeronautical weather chart ! - Copyright ORBIFLY December 2007 - Disclaimer

ORBIFLY MET'MAP TEAM :

Programming & Development : Alexandra Zaïnal
Concept & Development : Baudouin d'Aumeries
Co-Development & Prog : Marc-Olivier Méhu
Technical & hardware support : Manuel Goepfert

Contact : metmap@orbifly.com




SOURCES & CREDITS :

   NOAA